.
WxDataArchive / Data Records for 2009-06-05
2009-06-04 June 2009 2009-06-06

Data Records for Friday, 05 June 2009

Time	Temp	Chill	HIndex	Humid	Dewpt	 Wind 	HiWind	WindDir	Rain 	Barom 
-----	----	-----	------	-----	-----	------	------	-------	-----	----- 
00:00	49.9	49.9	49.9	75	42.3	0	0	---	0.00	29.997 
00:05	49.6	49.6	49.6	77	42.7	0	0	---	0.00	29.997 
00:10	49.4	49.4	49.4	77	42.5	0	0	---	0.00	29.997 
00:15	49.1	49.1	49.1	78	42.5	0	0	---	0.00	29.996 
00:20	48.9	48.9	48.9	79	42.7	0	0	---	0.00	29.996 
00:25	48.6	48.6	48.6	79	42.4	0	0	---	0.00	29.996 
00:30	48.3	48.3	48.3	80	42.4	0	0	---	0.00	29.995 
00:35	48.2	48.2	48.2	81	42.6	0	0	---	0.00	29.995 
00:40	47.9	47.9	47.9	81	42.4	0	0	---	0.00	29.995 
00:45	47.7	47.7	47.7	82	42.5	0	0	---	0.00	29.993 
00:50	47.6	47.6	47.6	83	42.7	0	0	---	0.00	29.993 
00:55	47.3	47.3	47.3	83	42.4	0	0	---	0.00	29.993 
01:00	47.1	47.1	47.1	84	42.5	0	0	---	0.00	29.994 
01:05	47.0	47.0	47.0	85	42.7	0	0	---	0.00	29.994 
01:10	47.0	47.0	47.0	85	42.7	0	0	---	0.00	29.994 
01:15	46.7	46.7	46.7	85	42.4	0	0	---	0.00	29.988 
01:20	46.5	46.5	46.5	86	42.5	0	0	---	0.00	29.988 
01:25	46.4	46.4	46.4	86	42.4	0	0	---	0.00	29.988 
01:30	46.1	46.1	46.1	86	42.1	0	0	---	0.00	29.983 
01:35	46.0	46.0	46.0	86	42.0	0	0	---	0.00	29.983 
01:40	45.8	45.8	45.8	87	42.2	0	0	---	0.00	29.983 
01:45	45.7	45.7	45.7	87	42.1	0	0	---	0.00	29.980 
01:50	45.5	45.5	45.5	87	41.9	0	0	---	0.00	29.980 
01:55	45.4	45.4	45.4	88	42.1	0	0	---	0.00	29.980 
02:00	45.1	45.1	45.1	88	41.8	0	0	---	0.00	29.978 
02:05	44.9	44.9	44.9	88	41.6	0	0	---	0.00	29.978 
02:10	44.8	44.8	44.8	88	41.5	0	0	---	0.00	29.978 
02:15	44.6	44.6	44.6	89	41.6	0	0	---	0.00	29.977 
02:20	44.5	44.5	44.5	89	41.5	0	0	---	0.00	29.977 
02:25	44.3	44.3	44.3	89	41.3	0	0	---	0.00	29.977 
02:30	44.3	44.3	44.3	90	41.6	0	0	---	0.00	29.971 
02:35	44.2	44.2	44.2	90	41.5	0	0	---	0.00	29.971 
02:40	44.2	44.2	44.2	90	41.5	0	0	---	0.00	29.971 
02:45	44.1	44.1	44.1	90	41.4	0	0	---	0.00	29.966 
02:50	44.1	44.1	44.1	91	41.6	0	0	---	0.00	29.966 
02:55	43.9	43.9	43.9	91	41.4	0	0	---	0.00	29.966 
03:00	43.8	43.8	43.8	91	41.3	0	0	---	0.00	29.967 
03:05	43.8	43.8	43.8	91	41.3	0	0	---	0.00	29.967 
03:10	43.8	43.8	43.8	92	41.6	0	0	---	0.00	29.967 
03:15	43.8	43.8	43.8	92	41.6	0	0	---	0.00	29.963 
03:20	43.8	43.8	43.8	92	41.6	0	0	---	0.00	29.963 
03:25	43.6	43.6	43.6	92	41.4	0	0	---	0.00	29.963 
03:30	43.6	43.6	43.6	92	41.4	0	0	---	0.00	29.964 
03:35	43.6	43.6	43.6	92	41.4	0	0	---	0.00	29.964 
03:40	43.5	43.5	43.5	92	41.3	0	0	---	0.00	29.964 
03:45	43.6	43.6	43.6	93	41.7	0	0	---	0.00	29.962 
03:50	43.6	43.6	43.6	93	41.7	0	0	---	0.00	29.962 
03:55	43.6	43.6	43.6	93	41.7	0	0	---	0.00	29.962 
04:00	43.6	43.6	43.6	93	41.7	0	0	---	0.00	29.962 
04:05	43.6	43.6	43.6	93	41.7	0	0	---	0.00	29.962 
04:10	43.6	43.6	43.6	93	41.7	0	0	---	0.00	29.962 
04:15	43.8	43.8	43.8	93	41.9	0	0	---	0.00	29.958 
04:20	43.8	43.8	43.8	93	41.9	0	0	---	0.00	29.958 
04:25	43.8	43.8	43.8	93	41.9	0	0	---	0.00	29.958 
04:30	43.8	43.8	43.8	93	41.9	0	0	---	0.00	29.958 
04:35	43.9	43.9	43.9	93	42.0	0	0	---	0.00	29.958 
04:40	44.1	44.1	44.1	93	42.2	0	0	---	0.00	29.958 
04:45	43.9	43.9	43.9	93	42.0	0	0	---	0.00	29.962 
04:50	43.8	43.8	43.8	92	41.6	0	0	---	0.00	29.962 
04:55	43.6	43.6	43.6	92	41.4	0	0	---	0.00	29.962 
05:00	43.5	43.5	43.5	92	41.3	0	0	---	0.00	29.960 
05:05	43.3	43.3	43.3	92	41.1	0	0	---	0.00	29.960 
05:10	43.1	43.1	43.1	92	40.9	0	0	---	0.00	29.960 
05:15	43.1	43.1	43.1	92	40.9	0	0	---	0.00	29.963 
05:20	42.9	42.9	42.9	92	40.7	0	0	---	0.00	29.963 
05:25	42.8	42.8	42.8	92	40.6	0	0	---	0.00	29.963 
05:30	42.8	42.8	42.8	92	40.6	0	0	---	0.00	29.963 
05:35	42.8	42.8	42.8	92	40.6	0	0	---	0.00	29.963 
05:40	42.6	42.6	42.6	92	40.4	0	0	---	0.00	29.963 
05:45	42.5	42.5	42.5	92	40.3	0	0	---	0.00	29.961 
05:50	42.5	42.5	42.5	92	40.3	0	0	---	0.00	29.961 
05:55	42.3	42.3	42.3	92	40.1	0	0	---	0.00	29.961 
06:00	42.3	42.3	42.3	92	40.1	0	0	---	0.00	29.963 
06:05	42.3	42.3	42.3	92	40.1	0	0	---	0.00	29.963 
06:10	42.2	42.2	42.2	92	40.0	0	0	---	0.00	29.963 
06:15	42.2	42.2	42.2	92	40.0	0	0	---	0.00	29.964 
06:20	42.2	42.2	42.2	92	40.0	0	0	---	0.00	29.964 
06:25	42.2	42.2	42.2	92	40.0	0	0	---	0.00	29.964 
06:30	42.1	42.1	42.1	92	39.9	0	0	---	0.00	29.967 
06:35	42.1	42.1	42.1	92	39.9	0	0	---	0.00	29.967 
06:40	42.1	42.1	42.1	92	39.9	0	0	---	0.00	29.967 
06:45	42.2	42.2	42.2	93	40.3	0	0	---	0.00	29.968 
06:50	42.3	42.3	42.3	93	40.4	0	0	---	0.00	29.968 
06:55	42.5	42.5	42.5	93	40.6	0	0	---	0.00	29.968 
07:00	42.8	42.8	42.8	93	40.9	0	0	---	0.00	29.966 
07:05	43.1	43.1	43.1	93	41.2	0	0	---	0.00	29.966 
07:10	43.3	43.3	43.3	93	41.4	0	0	---	0.00	29.966 
07:15	43.8	43.8	43.8	94	42.2	0	0	---	0.00	29.968 
07:20	44.2	44.2	44.2	94	42.6	0	0	---	0.00	29.968 
07:25	44.9	44.9	44.9	94	43.3	0	0	---	0.00	29.968 
07:30	45.7	45.7	45.7	94	44.1	0	0	---	0.00	29.969 
07:35	46.5	46.5	46.5	94	44.9	0	0	---	0.00	29.969 
07:40	47.4	47.4	47.4	93	45.5	0	0	---	0.00	29.969 
07:45	48.5	48.5	48.5	92	46.3	0	0	---	0.00	29.967 
07:50	49.4	49.4	49.4	90	46.6	0	0	---	0.00	29.967 
07:55	50.2	50.2	50.2	86	46.2	0	0	---	0.00	29.967 
08:00	51.4	51.4	51.4	84	46.7	0	0	---	0.00	29.962 
08:05	52.3	52.3	52.3	80	46.3	0	0	---	0.00	29.962 
08:10	53.2	53.2	53.2	77	46.2	0	0	---	0.00	29.962 
08:15	54.2	54.2	54.2	73	45.7	0	0	---	0.00	29.965 
08:20	55.0	55.0	55.0	70	45.4	0	0	---	0.00	29.965 
08:25	56.0	56.0	56.0	70	46.4	0	0	---	0.00	29.965 
08:30	57.0	57.0	57.0	66	45.8	0	1	90	0.00	29.967 
08:35	58.0	58.0	58.0	63	45.5	0	1	90	0.00	29.967 
08:40	58.6	58.6	58.6	62	45.6	0	1	90	0.00	29.967 
08:45	59.3	59.3	59.3	62	46.3	0	1	90	0.00	29.961 
08:50	59.8	59.8	59.8	58	45.0	0	1	90	0.00	29.961 
08:55	60.1	60.1	60.1	58	45.3	0	1	90	0.00	29.961 
09:00	60.7	60.7	60.7	57	45.4	0	2	90	0.00	29.962 
09:05	61.2	61.2	61.2	53	43.9	0	1	90	0.00	29.962 
09:10	61.5	61.5	61.5	53	44.2	0	0	---	0.00	29.962 
09:15	62.0	62.0	62.0	51	43.7	0	2	90	0.00	29.966 
09:20	62.9	62.9	62.9	53	45.5	1	2	90	0.00	29.966 
09:25	63.2	63.2	63.2	49	43.7	0	2	90	0.00	29.966 
09:30	63.9	63.9	63.9	50	44.9	0	2	90	0.00	29.963 
09:35	63.9	63.9	63.9	49	44.4	0	2	90	0.00	29.963 
09:40	64.5	64.5	64.5	48	44.4	0	1	90	0.00	29.963 
09:45	65.3	65.3	65.3	47	44.5	0	2	90	0.00	29.959 
09:50	65.6	65.6	65.6	45	43.7	0	3	90	0.00	29.959 
09:55	66.1	66.1	66.1	46	44.7	0	2	90	0.00	29.959 
10:00	66.4	66.4	66.4	44	43.8	0	2	90	0.00	29.957 
10:05	66.6	66.6	66.6	46	45.2	0	2	90	0.00	29.957 
10:10	66.4	66.4	66.4	42	42.6	1	2	90	0.00	29.957 
10:15	66.4	66.4	66.4	44	43.8	0	2	90	0.00	29.959 
10:20	67.1	67.1	67.1	45	45.0	1	2	90	0.00	29.959 
10:25	67.1	67.1	67.1	40	42.0	1	3	90	0.00	29.959 
10:30	66.9	66.9	66.9	39	41.1	1	3	90	0.00	29.963 
10:35	67.1	67.1	67.1	42	43.2	0	1	90	0.00	29.963 
10:40	67.6	67.6	67.6	43	44.3	0	1	90	0.00	29.963 
10:45	67.6	67.6	67.6	36	39.7	0	1	90	0.00	29.962 
10:50	68.1	68.1	68.1	36	40.1	0	2	90	0.00	29.962 
10:55	68.8	68.8	68.8	36	40.7	1	3	90	0.00	29.962 
11:00	68.9	68.9	68.9	39	42.9	0	2	90	0.00	29.958 
11:05	68.4	68.4	68.4	37	41.1	0	2	90	0.00	29.958 
11:10	68.8	68.8	68.8	34	39.3	1	3	90	0.00	29.958 
11:15	69.3	69.3	69.3	37	41.9	0	3	90	0.00	29.962 
11:20	69.1	69.1	69.1	32	38.0	0	2	90	0.00	29.962 
11:25	69.3	69.3	69.3	32	38.2	0	3	68	0.00	29.962 
11:30	69.6	69.6	69.6	36	41.5	0	2	68	0.00	29.959 
11:35	69.8	69.8	69.8	37	42.3	0	2	68	0.00	29.959 
11:40	69.8	69.8	69.8	30	37.0	0	2	68	0.00	29.959 
11:45	70.1	70.1	70.1	40	44.6	0	3	68	0.00	29.958 
11:50	70.1	70.1	70.1	32	38.9	1	3	0	0.00	29.958 
11:55	69.8	69.8	69.8	34	40.2	1	3	270	0.00	29.958 
12:00	69.6	69.6	69.6	33	39.2	1	3	292	0.00	29.958 
12:05	69.8	69.8	69.8	36	41.6	0	2	292	0.00	29.958 
12:10	70.1	70.1	70.1	29	36.4	0	2	292	0.00	29.958 
12:15	70.3	70.3	70.3	30	37.4	1	3	292	0.00	29.961 
12:20	70.3	70.3	70.3	32	39.0	0	2	292	0.00	29.961 
12:25	70.3	70.3	70.3	39	44.2	1	5	292	0.00	29.961 
12:30	70.3	70.3	70.3	35	41.3	2	5	90	0.00	29.958 
12:35	70.6	70.6	70.6	34	40.9	0	2	90	0.00	29.958 
12:40	70.4	70.4	70.4	34	40.7	1	3	315	0.00	29.958 
12:45	70.8	70.8	70.8	31	38.7	0	3	270	0.00	29.958 
12:50	71.3	71.3	71.3	29	37.4	0	2	270	0.00	29.958 
12:55	71.8	71.8	71.8	30	38.7	0	2	270	0.00	29.958 
13:00	71.8	71.8	71.8	32	40.3	1	4	270	0.00	29.952 
13:05	71.3	71.3	71.3	31	39.1	2	3	292	0.00	29.952 
13:10	71.1	71.1	71.1	31	38.9	1	3	292	0.00	29.952 
13:15	71.3	71.3	71.3	31	39.1	0	2	315	0.00	29.949 
13:20	71.3	71.3	71.3	34	41.5	0	2	315	0.00	29.949 
13:25	71.5	71.5	71.5	34	41.6	1	3	292	0.00	29.949 
13:30	71.5	71.5	71.5	29	37.6	1	3	292	0.00	29.946 
13:35	71.8	71.8	71.8	29	37.8	1	2	292	0.00	29.946 
13:40	71.8	71.8	71.8	32	40.3	1	3	315	0.00	29.946 
13:45	72.1	72.1	72.1	32	40.6	0	3	315	0.00	29.942 
13:50	72.1	72.1	72.1	28	37.2	1	2	338	0.00	29.942 
13:55	72.0	72.0	72.0	28	37.1	1	3	315	0.00	29.942 
14:00	71.8	71.8	71.8	28	36.9	2	5	270	0.00	29.936 
14:05	71.8	71.8	71.8	31	39.5	1	3	315	0.00	29.936 
14:10	72.3	72.3	72.3	29	38.3	0	2	0	0.00	29.936 
14:15	72.7	72.7	72.7	30	39.5	0	1	0	0.00	29.929 
14:20	73.0	73.0	73.0	29	38.9	0	2	0	0.00	29.929 
14:25	73.5	73.5	73.5	29	39.3	0	2	0	0.00	29.929 
14:30	73.2	73.2	73.2	32	41.6	0	2	0	0.00	29.929 
14:35	73.2	73.2	73.2	30	39.9	1	3	0	0.00	29.929 
14:40	73.2	73.2	73.2	29	39.0	1	3	315	0.00	29.929 
14:45	73.3	73.3	73.3	32	41.6	1	2	270	0.00	29.928 
14:50	73.5	73.5	73.5	32	41.8	1	4	270	0.00	29.928 
14:55	73.5	73.5	73.5	35	44.2	1	3	292	0.00	29.928 
15:00	73.7	73.7	73.7	30	40.3	1	3	270	0.00	29.920 
15:05	73.7	73.7	73.7	31	41.2	1	3	248	0.00	29.920 
15:10	73.7	73.7	73.7	27	37.6	1	3	270	0.00	29.920 
15:15	73.5	73.5	73.5	27	37.5	1	3	270	0.00	29.919 
15:20	73.5	73.5	73.5	28	38.4	1	4	270	0.00	29.919 
15:25	73.5	73.5	73.5	28	38.4	1	4	270	0.00	29.919 
15:30	73.9	73.9	73.9	28	38.7	1	2	270	0.00	29.920 
15:35	74.0	74.0	74.0	29	39.7	0	3	270	0.00	29.920 
15:40	74.2	74.2	74.2	28	39.0	1	4	270	0.00	29.920 
15:45	74.2	74.2	74.2	27	38.1	0	2	270	0.00	29.915 
15:50	74.0	74.0	74.0	32	42.3	1	3	292	0.00	29.915 
15:55	74.0	74.0	74.0	28	38.8	1	3	315	0.00	29.915 
16:00	74.0	74.0	74.0	26	36.9	2	4	315	0.00	29.913 
16:05	74.0	74.0	74.0	26	36.9	1	2	315	0.00	29.913 
16:10	74.4	74.4	74.4	31	41.8	1	3	315	0.00	29.913 
16:15	74.6	74.6	74.6	29	40.2	1	4	202	0.00	29.910 
16:20	75.1	75.1	76.8	28	39.8	0	2	90	0.00	29.910 
16:25	74.9	74.9	74.9	29	40.5	0	2	90	0.00	29.910 
16:30	75.3	75.3	76.9	28	39.9	0	3	90	0.00	29.907 
16:35	75.1	75.1	76.7	27	38.8	0	3	270	0.00	29.907 
16:40	74.7	74.7	74.7	26	37.5	1	3	315	0.00	29.907 
16:45	74.6	74.6	74.6	27	38.4	1	3	292	0.00	29.908 
16:50	74.6	74.6	74.6	27	38.4	1	3	292	0.00	29.908 
16:55	74.2	74.2	74.2	26	37.1	1	3	292	0.00	29.908 
17:00	74.4	74.4	74.4	27	38.2	0	1	315	0.00	29.901 
17:05	74.7	74.7	74.7	26	37.5	0	2	315	0.00	29.901 
17:10	74.7	74.7	74.7	29	40.3	1	2	315	0.00	29.901 
17:15	74.7	74.7	74.7	25	36.5	1	3	292	0.00	29.907 
17:20	74.7	74.7	74.7	27	38.5	1	3	315	0.00	29.907 
17:25	74.7	74.7	74.7	25	36.5	1	3	315	0.00	29.907 
17:30	74.9	74.9	74.9	26	37.7	1	2	292	0.00	29.905 
17:35	74.9	74.9	74.9	25	36.7	1	3	292	0.00	29.905 
17:40	74.6	74.6	74.6	26	37.4	2	4	270	0.00	29.905 
17:45	74.7	74.7	74.7	27	38.5	1	3	248	0.00	29.905 
17:50	75.1	75.1	76.7	27	38.8	1	3	248	0.00	29.905 
17:55	75.3	75.3	76.8	27	39.0	0	2	270	0.00	29.905 
18:00	75.1	75.1	76.5	25	36.9	0	2	270	0.00	29.907 
18:05	74.7	74.7	74.7	25	36.5	1	3	270	0.00	29.907 
18:10	74.4	74.4	74.4	26	37.3	1	3	270	0.00	29.907 
18:15	74.2	74.2	74.2	27	38.1	1	3	315	0.00	29.902 
18:20	73.9	73.9	73.9	28	38.7	1	3	315	0.00	29.902 
18:25	73.9	73.9	73.9	27	37.8	1	4	270	0.00	29.902 
18:30	73.9	73.9	73.9	28	38.7	0	3	270	0.00	29.898 
18:35	73.7	73.7	73.7	27	37.6	0	3	315	0.00	29.898 
18:40	73.7	73.7	73.7	28	38.6	1	3	315	0.00	29.898 
18:45	73.7	73.7	73.7	28	38.6	1	4	270	0.00	29.896 
18:50	73.5	73.5	73.5	27	37.5	1	3	270	0.00	29.896 
18:55	73.5	73.5	73.5	28	38.4	1	2	270	0.00	29.896 
19:00	73.5	73.5	73.5	28	38.4	1	2	270	0.00	29.894 
19:05	73.3	73.3	73.3	28	38.2	0	2	270	0.00	29.894 
19:10	73.3	73.3	73.3	29	39.1	0	1	270	0.00	29.894 
19:15	73.2	73.2	73.2	27	37.2	0	2	315	0.00	29.885 
19:20	73.2	73.2	73.2	28	38.1	0	1	315	0.00	29.885 
19:25	73.2	73.2	73.2	28	38.1	1	2	315	0.00	29.885 
19:30	73.0	73.0	73.0	27	37.0	1	2	292	0.00	29.884 
19:35	73.0	73.0	73.0	28	38.0	0	2	292	0.00	29.884 
19:40	72.8	72.8	72.8	30	39.5	0	1	292	0.00	29.884 
19:45	72.8	72.8	72.8	28	37.8	0	3	292	0.00	29.886 
19:50	72.7	72.7	72.7	27	36.8	0	2	292	0.00	29.886 
19:55	72.7	72.7	72.7	28	37.7	0	1	292	0.00	29.886 
20:00	72.5	72.5	72.5	28	37.5	0	1	292	0.00	29.888 
20:05	72.3	72.3	72.3	29	38.3	0	0	---	0.00	29.888 
20:10	72.1	72.1	72.1	31	39.8	0	1	292	0.00	29.888 
20:15	71.8	71.8	71.8	31	39.5	0	1	292	0.00	29.883 
20:20	71.5	71.5	71.5	30	38.4	0	1	292	0.00	29.883 
20:25	71.3	71.3	71.3	30	38.3	0	0	---	0.00	29.883 
20:30	71.1	71.1	71.1	32	39.7	0	0	---	0.00	29.884 
20:35	70.8	70.8	70.8	34	41.0	0	0	---	0.00	29.884 
20:40	70.4	70.4	70.4	34	40.7	0	0	---	0.00	29.884 
20:45	69.9	69.9	69.9	35	41.0	0	0	---	0.00	29.886 
20:50	69.4	69.4	69.4	36	41.3	0	0	---	0.00	29.886 
20:55	68.9	68.9	68.9	38	42.2	0	0	---	0.00	29.886 
21:00	68.3	68.3	68.3	39	42.4	0	0	---	0.00	29.889 
21:05	67.6	67.6	67.6	40	42.4	0	0	---	0.00	29.889 
21:10	66.9	66.9	66.9	41	42.4	0	0	---	0.00	29.889 
21:15	66.1	66.1	66.1	43	42.9	0	0	---	0.00	29.886 
21:20	65.3	65.3	65.3	43	42.2	0	0	---	0.00	29.886 
21:25	64.8	64.8	64.8	44	42.4	0	0	---	0.00	29.886 
21:30	64.2	64.2	64.2	46	43.0	0	0	---	0.00	29.888 
21:35	63.5	63.5	63.5	47	42.9	0	0	---	0.00	29.888 
21:40	63.1	63.1	63.1	49	43.6	0	0	---	0.00	29.888 
21:45	62.4	62.4	62.4	49	43.0	0	0	---	0.00	29.893 
21:50	62.1	62.1	62.1	50	43.2	0	0	---	0.00	29.893 
21:55	61.5	61.5	61.5	51	43.2	0	0	---	0.00	29.893 
22:00	61.2	61.2	61.2	53	43.9	0	0	---	0.00	29.893 
22:05	60.9	60.9	60.9	53	43.7	0	0	---	0.00	29.893 
22:10	60.4	60.4	60.4	55	44.2	0	0	---	0.00	29.893 
22:15	60.1	60.1	60.1	56	44.3	0	0	---	0.00	29.899 
22:20	59.6	59.6	59.6	57	44.3	0	0	---	0.00	29.899 
22:25	59.3	59.3	59.3	58	44.5	0	0	---	0.00	29.899 
22:30	59.0	59.0	59.0	58	44.2	0	0	---	0.00	29.902 
22:35	58.6	58.6	58.6	58	43.9	0	0	---	0.00	29.902 
22:40	58.3	58.3	58.3	59	44.0	0	0	---	0.00	29.902 
22:45	58.0	58.0	58.0	61	44.6	0	0	---	0.00	29.905 
22:50	57.8	57.8	57.8	63	45.3	0	0	---	0.00	29.905 
22:55	57.5	57.5	57.5	63	45.0	0	0	---	0.00	29.905 
23:00	57.2	57.2	57.2	63	44.7	0	0	---	0.00	29.911 
23:05	57.0	57.0	57.0	64	44.9	0	0	---	0.00	29.911 
23:10	56.9	56.9	56.9	65	45.3	0	0	---	0.00	29.911 
23:15	56.7	56.7	56.7	65	45.1	0	0	---	0.00	29.916 
23:20	56.5	56.5	56.5	65	44.9	0	0	---	0.00	29.916 
23:25	56.3	56.3	56.3	66	45.1	0	0	---	0.00	29.916 
23:30	56.2	56.2	56.2	67	45.4	0	0	---	0.00	29.916 
23:35	56.0	56.0	56.0	67	45.2	0	0	---	0.00	29.916 
23:40	56.0	56.0	56.0	67	45.2	0	0	---	0.00	29.916 
23:45	55.9	55.9	55.9	67	45.1	0	0	---	0.00	29.918 
23:50	55.9	55.9	55.9	68	45.5	0	0	---	0.00	29.918 
23:55	55.7	55.7	55.7	68	45.3	0	0	---	0.00	29.918 

CoCoRaHS
IN-AL-39
A2 Web Hosting
Creative Commons License
GoDaddy
search engine by freefind advanced

loaded 2018-11-17 00:14:55 • last modified 2010-11-18 10:43:29
Privacy PolicyDisclaimer
• wx.awcolley.com is powered by PmWiki v.2002016 •
• all content (unless otherwise noted) © 2018 A W Colley